createdAt,value
2018-09-04T00:02:19.154Z,16.00
2018-09-04T00:04:48.071Z,16.00
2018-09-04T00:07:19.869Z,15.80
2018-09-04T00:09:49.729Z,15.80
2018-09-04T00:12:18.778Z,15.80
2018-09-04T00:14:47.756Z,15.70
2018-09-04T00:17:16.680Z,15.60
2018-09-04T00:19:45.641Z,15.60
2018-09-04T00:22:14.619Z,15.70
2018-09-04T00:24:43.586Z,15.80
2018-09-04T00:27:12.583Z,15.80
2018-09-04T00:29:41.451Z,15.90
2018-09-04T00:32:10.263Z,15.90
2018-09-04T00:34:39.176Z,16.00
2018-09-04T00:37:08.096Z,16.00
2018-09-04T00:39:36.930Z,16.10
2018-09-04T00:42:06.303Z,16.00
2018-09-04T00:44:35.226Z,16.00
2018-09-04T00:47:04.084Z,15.90
2018-09-04T00:49:32.804Z,16.00
2018-09-04T00:52:01.486Z,16.00
2018-09-04T00:54:30.159Z,16.00
2018-09-04T00:56:58.806Z,16.00
2018-09-04T00:59:27.485Z,16.00
2018-09-04T01:01:56.736Z,16.00
2018-09-04T01:04:25.446Z,16.00
2018-09-04T01:06:54.194Z,16.00
2018-09-04T01:09:23.255Z,16.00
2018-09-04T01:11:52.196Z,15.90
2018-09-04T01:14:21.036Z,15.90
2018-09-04T01:16:50.243Z,15.80
2018-09-04T01:19:18.994Z,15.80
2018-09-04T01:21:47.676Z,15.80
2018-09-04T01:24:16.426Z,15.80
2018-09-04T01:26:45.166Z,15.80
2018-09-04T01:29:13.993Z,15.80
2018-09-04T01:31:42.807Z,15.70
2018-09-04T01:34:11.606Z,15.70
2018-09-04T01:36:40.346Z,15.70
2018-09-04T01:39:09.135Z,15.60
2018-09-04T01:41:37.826Z,15.60
2018-09-04T01:44:06.584Z,15.60
2018-09-04T01:46:35.264Z,15.70
2018-09-04T01:49:03.946Z,15.80
2018-09-04T01:51:32.666Z,15.80
2018-09-04T01:54:01.344Z,15.90
2018-09-04T01:56:30.044Z,15.90
2018-09-04T01:58:58.854Z,15.90
2018-09-04T02:01:27.670Z,15.90
2018-09-04T02:03:56.501Z,15.90
2018-09-04T02:06:25.311Z,15.80
2018-09-04T02:08:54.079Z,15.80
2018-09-04T02:11:22.723Z,15.80
2018-09-04T02:13:51.383Z,15.90
2018-09-04T02:16:20.116Z,15.80
2018-09-04T02:18:48.786Z,15.80
2018-09-04T02:21:17.531Z,15.70
2018-09-04T02:23:46.191Z,15.60
2018-09-04T02:26:14.936Z,15.60
2018-09-04T02:28:43.711Z,15.60
2018-09-04T02:31:12.467Z,15.60
2018-09-04T02:33:41.099Z,15.60
2018-09-04T02:36:09.761Z,15.60
2018-09-04T02:38:38.414Z,15.70
2018-09-04T02:41:07.431Z,15.70
2018-09-04T02:43:36.194Z,15.80
2018-09-04T02:46:05.306Z,15.80
2018-09-04T02:48:34.026Z,15.90
2018-09-04T02:51:02.878Z,15.90
2018-09-04T02:53:31.554Z,15.90
2018-09-04T02:56:00.224Z,15.90
2018-09-04T02:58:29.004Z,15.80
2018-09-04T03:00:57.759Z,15.80
2018-09-04T03:03:26.673Z,15.80
2018-09-04T03:05:55.473Z,15.80
2018-09-04T03:08:24.288Z,15.80
2018-09-04T03:10:53.054Z,15.70
2018-09-04T03:13:21.858Z,15.60
2018-09-04T03:15:50.591Z,15.60
2018-09-04T03:18:19.376Z,15.60
2018-09-04T03:20:48.118Z,15.80
2018-09-04T03:23:17.095Z,15.80
2018-09-04T03:25:45.845Z,15.80
2018-09-04T03:28:14.551Z,15.90
2018-09-04T03:30:43.376Z,15.80
2018-09-04T03:33:12.121Z,15.80
2018-09-04T03:35:40.891Z,15.80
2018-09-04T03:38:09.698Z,15.80
2018-09-04T03:40:38.483Z,15.80
2018-09-04T03:43:07.714Z,15.80
2018-09-04T03:45:36.506Z,15.90
2018-09-04T03:48:06.261Z,15.80
2018-09-04T03:50:35.099Z,15.80
2018-09-04T03:53:03.856Z,15.80
2018-09-04T03:55:32.728Z,15.90
2018-09-04T03:58:01.597Z,15.80
2018-09-04T04:00:30.451Z,15.80
2018-09-04T04:02:59.171Z,15.80
2018-09-04T04:05:27.824Z,15.80
2018-09-04T04:07:56.567Z,15.70
2018-09-04T04:10:25.263Z,15.70
2018-09-04T04:12:54.056Z,15.70
2018-09-04T04:15:22.858Z,15.70
2018-09-04T04:17:51.626Z,15.60
2018-09-04T04:20:20.441Z,15.50
2018-09-04T04:22:49.275Z,15.50
2018-09-04T04:25:17.984Z,15.40
2018-09-04T04:27:46.813Z,15.30
2018-09-04T04:30:15.545Z,15.30
2018-09-04T04:32:44.463Z,15.30
2018-09-04T04:35:13.419Z,15.30
2018-09-04T04:37:42.191Z,15.20
2018-09-04T04:40:11.046Z,15.10
2018-09-04T04:42:39.837Z,15.10
2018-09-04T04:45:08.640Z,15.10
2018-09-04T04:47:42.860Z,15.10
2018-09-04T04:50:11.479Z,15.00
2018-09-04T04:52:40.443Z,15.00
2018-09-04T04:55:09.165Z,15.00
2018-09-04T04:57:37.840Z,15.00
2018-09-04T05:00:07.199Z,15.00
2018-09-04T05:02:36.126Z,14.90
2018-09-04T05:05:05.046Z,14.90
2018-09-04T05:07:33.930Z,15.00
2018-09-04T05:10:02.906Z,15.10
2018-09-04T05:12:31.803Z,15.20
2018-09-04T05:15:00.540Z,15.40
2018-09-04T05:17:29.288Z,15.50
2018-09-04T05:19:58.148Z,15.60
2018-09-04T05:22:26.844Z,15.60
2018-09-04T05:24:55.578Z,15.70
2018-09-04T05:27:24.370Z,15.70
2018-09-04T05:29:53.352Z,15.70
2018-09-04T05:32:29.326Z,15.70
2018-09-04T05:34:58.095Z,15.60
2018-09-04T05:37:26.803Z,15.60
2018-09-04T05:39:55.478Z,15.60
2018-09-04T05:42:29.096Z,15.60
2018-09-04T05:44:57.785Z,15.60
2018-09-04T05:47:31.015Z,15.60
2018-09-04T05:49:59.943Z,15.70
2018-09-04T05:52:28.996Z,15.70
2018-09-04T05:54:57.950Z,15.80
2018-09-04T05:57:26.742Z,15.90
2018-09-04T05:59:55.548Z,16.00
2018-09-04T06:02:24.447Z,16.00
2018-09-04T06:04:53.140Z,16.20
2018-09-04T06:07:21.825Z,16.30
2018-09-04T06:09:50.591Z,16.30
2018-09-04T06:12:19.340Z,16.30
2018-09-04T06:14:48.080Z,16.60
2018-09-04T06:17:16.790Z,16.70
2018-09-04T06:19:45.556Z,16.70
2018-09-04T06:22:14.288Z,16.70
2018-09-04T06:24:43.075Z,16.90
2018-09-04T06:27:11.993Z,16.90
2018-09-04T06:29:40.833Z,17.10
2018-09-04T06:32:11.068Z,17.50
2018-09-04T06:34:39.883Z,17.70
2018-09-04T06:37:08.687Z,18.20
2018-09-04T06:39:37.516Z,18.70
2018-09-04T06:42:06.496Z,18.80
2018-09-04T06:44:35.393Z,18.80
2018-09-04T06:47:04.308Z,19.10
2018-09-04T06:49:33.045Z,19.30
2018-09-04T06:52:02.638Z,19.60
2018-09-04T06:54:31.388Z,19.80
2018-09-04T06:57:00.723Z,20.00
2018-09-04T06:59:29.458Z,20.10
2018-09-04T07:01:58.286Z,20.00
2018-09-04T07:04:26.928Z,20.00
2018-09-04T07:06:55.603Z,20.20
2018-09-04T07:09:24.196Z,20.70
2018-09-04T07:11:52.919Z,20.80
2018-09-04T07:14:21.545Z,21.10
2018-09-04T07:16:51.289Z,21.80
2018-09-04T07:19:21.292Z,21.80
2018-09-04T07:21:50.317Z,21.90
2018-09-04T07:24:19.214Z,21.90
2018-09-04T07:26:47.934Z,21.90
2018-09-04T07:29:16.724Z,22.10
2018-09-04T07:31:45.456Z,22.30
2018-09-04T07:34:14.210Z,22.50
2018-09-04T07:36:42.973Z,22.30
2018-09-04T07:39:12.161Z,22.40
2018-09-04T07:41:41.175Z,22.70
2018-09-04T07:44:09.808Z,22.80
2018-09-04T07:46:38.418Z,23.10
2018-09-04T07:49:07.103Z,23.70
2018-09-04T07:51:35.811Z,23.80
2018-09-04T07:54:04.653Z,23.70
2018-09-04T07:56:33.513Z,23.70
2018-09-04T07:59:02.266Z,23.60
2018-09-04T08:01:30.911Z,23.60
2018-09-04T08:03:59.559Z,23.70
2018-09-04T08:06:28.258Z,23.90
2018-09-04T08:08:56.956Z,23.90
2018-09-04T08:11:25.705Z,24.00
2018-09-04T08:13:54.385Z,23.90
2018-09-04T08:16:23.053Z,24.00
2018-09-04T08:18:51.792Z,24.00
2018-09-04T08:21:20.574Z,24.20
2018-09-04T08:23:49.310Z,24.40
2018-09-04T08:26:18.109Z,24.40
2018-09-04T08:28:46.893Z,24.60
2018-09-04T08:31:15.701Z,24.50
2018-09-04T08:33:44.459Z,24.60
2018-09-04T08:36:13.258Z,24.90
2018-09-04T08:38:47.506Z,25.00
2018-09-04T08:41:16.293Z,25.20
2018-09-04T08:43:44.962Z,25.20
2018-09-04T08:46:13.615Z,25.50
2018-09-04T08:48:42.368Z,25.80
2018-09-04T08:51:11.034Z,25.90
2018-09-04T08:53:39.735Z,25.90
2018-09-04T08:56:08.386Z,26.10
2018-09-04T08:58:37.166Z,25.80
2018-09-04T09:01:06.043Z,25.80
2018-09-04T09:03:34.938Z,26.60
2018-09-04T09:06:03.694Z,26.40
2018-09-04T09:08:32.473Z,26.50
2018-09-04T09:11:01.238Z,26.50
2018-09-04T09:13:29.993Z,26.80
2018-09-04T09:15:59.289Z,27.10
2018-09-04T09:18:28.034Z,27.10
2018-09-04T09:20:56.798Z,26.80
2018-09-04T09:23:25.573Z,26.80
2018-09-04T09:25:54.407Z,26.50
2018-09-04T09:28:23.154Z,26.30
2018-09-04T09:30:51.852Z,26.30
2018-09-04T09:33:20.491Z,26.30
2018-09-04T09:35:49.188Z,26.60
2018-09-04T09:38:17.927Z,26.90
2018-09-04T09:40:46.634Z,27.40
2018-09-04T09:43:15.303Z,28.00
2018-09-04T09:45:43.893Z,28.20
2018-09-04T09:48:12.547Z,28.90
2018-09-04T09:50:41.235Z,29.30
2018-09-04T09:53:09.887Z,29.30
2018-09-04T09:55:38.524Z,28.80
2018-09-04T09:58:07.189Z,28.10
2018-09-04T10:00:41.478Z,27.30
2018-09-04T10:03:15.671Z,26.90
2018-09-04T10:05:44.334Z,26.90
2018-09-04T10:08:13.040Z,27.30
2018-09-04T10:10:41.783Z,27.50
2018-09-04T10:13:10.416Z,27.30
2018-09-04T10:15:39.147Z,27.60
2018-09-04T10:18:07.932Z,27.80
2018-09-04T10:20:36.651Z,28.30
2018-09-04T10:23:05.584Z,28.50
2018-09-04T10:25:34.379Z,28.50
2018-09-04T10:28:03.228Z,27.60
2018-09-04T10:30:32.354Z,26.30
2018-09-04T10:33:01.199Z,25.90
2018-09-04T10:35:29.913Z,25.90
2018-09-04T10:37:58.633Z,26.10
2018-09-04T10:40:32.914Z,26.20
2018-09-04T10:43:01.586Z,26.20
2018-09-04T10:45:35.883Z,26.50
2018-09-04T10:48:04.801Z,26.40
2018-09-04T10:50:34.583Z,26.40
2018-09-04T10:53:03.256Z,26.30
2018-09-04T10:55:32.138Z,26.40
2018-09-04T10:58:00.941Z,26.60
2018-09-04T11:00:29.713Z,26.50
2018-09-04T11:02:58.619Z,26.20
2018-09-04T11:05:27.499Z,26.00
2018-09-04T11:07:56.253Z,26.30
2018-09-04T11:10:25.037Z,26.30
2018-09-04T11:12:53.922Z,26.20
2018-09-04T11:15:22.803Z,26.10
2018-09-04T11:17:51.586Z,26.20
2018-09-04T11:20:20.539Z,26.80
2018-09-04T11:22:50.264Z,27.00
2018-09-04T11:25:19.032Z,27.20
2018-09-04T11:27:47.751Z,27.40
2018-09-04T11:30:16.541Z,28.00
2018-09-04T11:32:45.659Z,28.20
2018-09-04T11:35:14.564Z,28.10
2018-09-04T11:37:43.840Z,28.20
2018-09-04T11:40:16.104Z,28.50
2018-09-04T11:42:44.930Z,29.10
2018-09-04T11:45:14.046Z,28.70
2018-09-04T11:47:42.729Z,27.40
2018-09-04T11:50:11.991Z,27.00
2018-09-04T11:52:40.741Z,27.00
2018-09-04T11:55:10.174Z,26.70
2018-09-04T11:57:38.942Z,26.10
2018-09-04T12:00:10.745Z,25.70
2018-09-04T12:02:40.649Z,25.30
2018-09-04T12:05:09.832Z,25.20
2018-09-04T12:07:38.680Z,25.00
2018-09-04T12:10:08.024Z,24.80
2018-09-04T12:12:37.862Z,24.70
2018-09-04T12:15:06.619Z,24.60
2018-09-04T12:17:35.427Z,24.60
2018-09-04T12:21:10.436Z,24.60
2018-09-04T12:23:39.976Z,24.70
2018-09-04T12:26:09.807Z,25.20
2018-09-04T12:28:38.518Z,25.40
2018-09-04T12:31:07.887Z,25.70
2018-09-04T12:33:36.542Z,25.50
2018-09-04T12:36:06.058Z,25.60
2018-09-04T12:38:39.558Z,25.80
2018-09-04T12:41:16.189Z,26.00
2018-09-04T12:43:44.991Z,26.10
2018-09-04T12:46:13.799Z,26.10
2018-09-04T12:48:48.232Z,26.00
2018-09-04T12:51:17.141Z,26.00
2018-09-04T12:53:45.999Z,26.10
2018-09-04T12:56:15.042Z,25.90
2018-09-04T12:58:43.831Z,25.80
2018-09-04T13:01:12.980Z,25.50
2018-09-04T13:03:41.734Z,25.40
2018-09-04T13:06:10.627Z,25.40
2018-09-04T13:08:39.362Z,25.20
2018-09-04T13:11:08.739Z,25.20
2018-09-04T13:13:38.500Z,25.30
2018-09-04T13:16:07.355Z,25.10
2018-09-04T13:18:36.124Z,25.00
2018-09-04T13:21:05.326Z,24.80
2018-09-04T13:23:35.025Z,24.40
2018-09-04T13:26:04.714Z,24.20
2018-09-04T13:28:34.179Z,23.90
2018-09-04T13:31:02.986Z,23.70
2018-09-04T13:33:31.599Z,23.60
2018-09-04T13:36:00.356Z,23.60
2018-09-04T13:38:29.281Z,23.50
2018-09-04T13:41:03.526Z,23.40
2018-09-04T13:43:32.350Z,23.30
2018-09-04T13:46:01.286Z,23.20
2018-09-04T13:48:32.492Z,23.00
2018-09-04T13:51:02.516Z,22.80
2018-09-04T13:53:31.954Z,22.70
2018-09-04T13:56:00.775Z,22.70
2018-09-04T13:58:29.627Z,22.60
2018-09-04T14:00:58.482Z,22.80
2018-09-04T14:03:27.272Z,22.80
2018-09-04T14:05:55.980Z,22.80
2018-09-04T14:08:24.761Z,22.80
2018-09-04T14:10:53.399Z,22.50
2018-09-04T14:13:22.162Z,22.50
2018-09-04T14:15:54.669Z,22.60
2018-09-04T14:18:23.459Z,22.50
2018-09-04T14:20:52.462Z,22.40
2018-09-04T14:23:21.666Z,22.40
2018-09-04T14:25:51.391Z,22.30
2018-09-04T14:28:40.975Z,22.20
2018-09-04T14:30:49.092Z,22.20
2018-09-04T14:33:17.793Z,22.30
2018-09-04T14:35:47.157Z,22.40
2018-09-04T14:38:15.926Z,22.30
2018-09-04T14:40:45.344Z,22.30
2018-09-04T14:43:15.527Z,22.40
2018-09-04T14:45:44.326Z,22.40
2018-09-04T14:48:13.045Z,22.40
2018-09-04T14:50:41.792Z,22.60
2018-09-04T14:53:10.492Z,22.60
2018-09-04T14:55:39.275Z,22.70
2018-09-04T14:58:08.035Z,22.60
2018-09-04T15:00:37.599Z,22.60
2018-09-04T15:03:06.437Z,22.90
2018-09-04T15:05:35.159Z,23.10
2018-09-04T15:08:03.889Z,23.20
2018-09-04T15:10:32.759Z,23.30
2018-09-04T15:13:01.500Z,23.30
2018-09-04T15:15:30.381Z,23.40
2018-09-04T15:17:59.374Z,23.40
2018-09-04T15:20:28.815Z,23.50
2018-09-04T15:22:57.614Z,23.50
2018-09-04T15:25:26.401Z,23.40
2018-09-04T15:27:55.329Z,23.00
2018-09-04T15:30:24.444Z,23.00
2018-09-04T15:32:53.569Z,22.80
2018-09-04T15:35:22.648Z,22.70
2018-09-04T15:37:51.791Z,22.70
2018-09-04T15:40:21.212Z,22.70
2018-09-04T15:42:50.385Z,22.70
2018-09-04T15:45:19.700Z,22.80
2018-09-04T15:47:48.968Z,22.70
2018-09-04T15:50:18.040Z,22.50
2018-09-04T15:52:46.942Z,22.40
2018-09-04T15:55:15.948Z,22.40
2018-09-04T15:57:45.170Z,22.30
2018-09-04T16:00:14.534Z,22.00
2018-09-04T16:02:43.922Z,21.80
2018-09-04T16:05:13.485Z,21.60
2018-09-04T16:07:42.533Z,21.50
2018-09-04T16:10:11.712Z,21.40
2018-09-04T16:12:40.620Z,21.20
2018-09-04T16:15:09.556Z,21.30
2018-09-04T16:17:38.541Z,21.30
2018-09-04T16:20:07.581Z,21.50
2018-09-04T16:22:36.739Z,21.60
2018-09-04T16:25:05.731Z,21.70
2018-09-04T16:27:34.451Z,21.60
2018-09-04T16:30:03.140Z,21.60
2018-09-04T16:32:31.834Z,21.50
2018-09-04T16:35:00.709Z,21.60
2018-09-04T16:37:29.473Z,21.70
2018-09-04T16:39:58.272Z,21.80
2018-09-04T16:42:27.109Z,21.90
2018-09-04T16:44:55.994Z,22.00
2018-09-04T16:47:24.827Z,22.00
2018-09-04T16:49:53.617Z,22.00
2018-09-04T16:52:22.530Z,22.00
2018-09-04T16:54:51.439Z,21.90
2018-09-04T16:57:20.404Z,21.80
2018-09-04T16:59:49.392Z,21.70
2018-09-04T17:02:18.314Z,21.50
2018-09-04T17:04:47.919Z,21.40
2018-09-04T17:07:16.641Z,21.40
2018-09-04T17:09:45.425Z,21.30
2018-09-04T17:12:14.323Z,21.20
2018-09-04T17:14:43.154Z,21.20
2018-09-04T17:17:11.959Z,21.10
2018-09-04T17:19:40.647Z,21.00
2018-09-04T17:22:09.459Z,20.90
2018-09-04T17:24:38.269Z,20.80
2018-09-04T17:27:07.274Z,20.70
2018-09-04T17:29:36.130Z,20.60
2018-09-04T17:32:04.909Z,20.50
2018-09-04T17:34:34.592Z,20.70
2018-09-04T17:37:03.351Z,20.80
2018-09-04T17:39:32.074Z,20.80
2018-09-04T17:42:00.897Z,20.90
2018-09-04T17:44:29.954Z,20.90
2018-09-04T17:46:58.929Z,20.70
2018-09-04T17:49:27.824Z,20.40
2018-09-04T17:51:56.757Z,20.20
2018-09-04T17:54:25.688Z,20.00
2018-09-04T17:56:54.603Z,20.00
2018-09-04T17:59:23.438Z,20.30
2018-09-04T18:02:26.026Z,20.40
2018-09-04T18:04:54.979Z,20.10
2018-09-04T18:07:23.808Z,19.90
2018-09-04T18:09:52.973Z,19.80
2018-09-04T18:12:22.074Z,19.70
2018-09-04T18:14:51.713Z,19.60
2018-09-04T18:17:20.608Z,19.60
2018-09-04T18:19:49.662Z,19.40
2018-09-04T18:22:18.921Z,19.40
2018-09-04T18:24:47.723Z,19.30
2018-09-04T18:27:16.542Z,19.10
2018-09-04T18:29:45.460Z,19.00
2018-09-04T18:32:14.985Z,19.20
2018-09-04T18:34:43.766Z,19.30
2018-09-04T18:37:12.518Z,19.30
2018-09-04T18:39:41.221Z,19.30
2018-09-04T18:42:10.080Z,19.20
2018-09-04T18:44:41.323Z,19.00
2018-09-04T18:47:10.369Z,18.90
2018-09-04T18:49:39.847Z,18.90
2018-09-04T18:52:08.720Z,18.80
2018-09-04T18:54:38.106Z,18.70
2018-09-04T18:57:07.793Z,18.60
2018-09-04T18:59:36.613Z,18.50
2018-09-04T19:02:05.369Z,18.50
2018-09-04T19:04:34.186Z,18.40
2018-09-04T19:07:02.961Z,18.30
2018-09-04T19:09:31.933Z,18.20
2018-09-04T19:12:00.716Z,18.10
2018-09-04T19:14:29.511Z,18.00
2018-09-04T19:16:59.361Z,18.00
2018-09-04T19:19:28.687Z,18.00
2018-09-04T19:21:57.489Z,18.00
2018-09-04T19:24:26.789Z,17.90
2018-09-04T19:26:55.673Z,17.80
2018-09-04T19:29:24.595Z,17.80
2018-09-04T19:31:53.544Z,17.70
2018-09-04T19:34:22.334Z,17.70
2018-09-04T19:36:51.701Z,17.60
2018-09-04T19:39:20.724Z,17.60
2018-09-04T19:41:49.629Z,17.50
2018-09-04T19:44:18.586Z,17.50
2018-09-04T19:46:47.964Z,17.40
2018-09-04T19:49:17.264Z,17.40
2018-09-04T19:51:46.295Z,17.30
2018-09-04T19:54:16.226Z,17.20
2018-09-04T19:56:45.368Z,17.20
2018-09-04T19:59:14.439Z,17.10
2018-09-04T20:01:43.578Z,17.10
2018-09-04T20:04:13.209Z,17.10
2018-09-04T20:06:43.481Z,17.00
2018-09-04T20:09:12.759Z,17.00
2018-09-04T20:11:41.871Z,16.90
2018-09-04T20:14:10.793Z,16.80
2018-09-04T20:16:40.534Z,16.70
2018-09-04T20:19:09.966Z,16.60
2018-09-04T20:21:40.224Z,16.60
2018-09-04T20:24:09.097Z,16.60
2018-09-04T20:26:38.231Z,16.60
2018-09-04T20:29:07.086Z,16.70
2018-09-04T20:31:35.872Z,16.80
2018-09-04T20:34:05.595Z,16.80
2018-09-04T20:36:34.444Z,16.70
2018-09-04T20:39:04.040Z,16.70
2018-09-04T20:41:33.051Z,16.70
2018-09-04T20:44:01.916Z,16.70
2018-09-04T20:46:30.856Z,16.70
2018-09-04T20:49:00.289Z,16.60
2018-09-04T20:51:28.958Z,16.60
2018-09-04T20:53:57.753Z,16.50
2018-09-04T20:56:26.744Z,16.50
2018-09-04T20:59:12.794Z,16.40
2018-09-04T21:01:58.548Z,16.40
2018-09-04T21:04:44.599Z,16.40
2018-09-04T21:07:15.949Z,16.40
2018-09-04T21:09:50.311Z,16.30
2018-09-04T21:12:19.119Z,16.20
2018-09-04T21:14:47.850Z,16.20
2018-09-04T21:17:18.024Z,16.10
2018-09-04T21:19:47.041Z,16.00
2018-09-04T21:22:17.591Z,16.00
2018-09-04T21:24:46.263Z,16.00
2018-09-04T21:27:14.998Z,15.90
2018-09-04T21:29:43.662Z,15.80
2018-09-04T21:32:12.501Z,15.80
2018-09-04T21:34:42.817Z,15.80
2018-09-04T21:37:11.636Z,15.80
2018-09-04T21:39:41.594Z,15.80
2018-09-04T21:42:11.643Z,15.80
2018-09-04T21:44:40.449Z,15.80
2018-09-04T21:47:09.433Z,15.80
2018-09-04T21:49:38.263Z,15.80
2018-09-04T21:52:07.125Z,16.00
2018-09-04T21:54:35.962Z,16.00
2018-09-04T21:57:04.851Z,16.00
2018-09-04T21:59:33.672Z,15.90
2018-09-04T22:02:02.515Z,15.90
2018-09-04T22:04:31.285Z,15.80
2018-09-04T22:07:00.075Z,15.70
2018-09-04T22:09:28.768Z,15.60
2018-09-04T22:11:57.507Z,15.50
2018-09-04T22:14:26.865Z,15.50
2018-09-04T22:16:55.665Z,15.50
2018-09-04T22:19:24.451Z,15.40
2018-09-04T22:21:53.204Z,15.40
2018-09-04T22:24:21.925Z,15.40
2018-09-04T22:26:50.676Z,15.40
2018-09-04T22:29:19.486Z,15.40
2018-09-04T22:31:48.216Z,15.40
2018-09-04T22:34:16.939Z,15.50
2018-09-04T22:36:45.746Z,15.50
2018-09-04T22:39:14.529Z,15.40
2018-09-04T22:41:43.191Z,15.50
2018-09-04T22:44:11.899Z,15.50
2018-09-04T22:46:40.598Z,15.60
2018-09-04T22:49:09.339Z,15.60
2018-09-04T22:51:38.006Z,15.60
2018-09-04T22:54:07.584Z,15.60
2018-09-04T22:56:37.106Z,15.60
2018-09-04T22:59:05.851Z,15.50
2018-09-04T23:01:34.537Z,15.40
2018-09-04T23:04:03.223Z,15.40
2018-09-04T23:06:31.869Z,15.30
2018-09-04T23:09:00.698Z,15.30
2018-09-04T23:11:29.776Z,15.30
2018-09-04T23:13:58.560Z,15.30
2018-09-04T23:16:27.412Z,15.30
2018-09-04T23:18:56.133Z,15.30
2018-09-04T23:21:24.900Z,15.30
2018-09-04T23:23:53.628Z,15.40
2018-09-04T23:26:22.241Z,15.40
2018-09-04T23:28:50.977Z,15.40
2018-09-04T23:31:19.651Z,15.30
2018-09-04T23:33:48.968Z,15.30
2018-09-04T23:36:17.916Z,15.10
2018-09-04T23:38:46.649Z,15.00
2018-09-04T23:41:15.471Z,14.80
2018-09-04T23:43:44.361Z,14.70
2018-09-04T23:46:13.223Z,14.60
2018-09-04T23:48:42.064Z,14.60
2018-09-04T23:51:10.919Z,14.70
2018-09-04T23:53:40.261Z,14.70
2018-09-04T23:56:08.921Z,14.70
2018-09-04T23:58:37.556Z,14.70
